Flight Track Log - Related Links

Times and Time Zones

All times are in EDT time to prevent confusion due to time zone crossing. See the SLI2311 flight status page for this flight to view local times or setup timezone preferences in your user account.

Time Position Orientation Groundspeed Altitude Reporting Facility
EDT Latitude Longitude Course Direction KTS MPH feet Rate Location/Type
Sat 05:28:00 PM 20.7200 -103.4979 319° Northwest  Level Estimated
Sat 05:29:00 PM 20.7860 -103.5603 319° Northwest  Level Estimated
Sat 05:30:00 PM 20.8520 -103.6227 319° Northwest  Level Estimated
Sat 05:31:00 PM 20.9179 -103.6852 319° Northwest  Level Estimated
Sat 05:32:00 PM 20.9839 -103.7477 318° Northwest  Level Estimated
Sat 05:33:00 PM 21.0498 -103.8103 318° Northwest  Level Estimated
Sat 05:34:00 PM 21.1157 -103.8729 318° Northwest  Level Estimated
Sat 05:35:00 PM 21.1815 -103.9356 318° Northwest  Level Estimated
Sat 05:36:00 PM 21.2474 -103.9984 318° Northwest  Level Estimated
Sat 05:37:00 PM 21.3132 -104.0612 318° Northwest  Level Estimated
Sat 05:38:00 PM 21.3790 -104.1241 318° Northwest  Level Estimated
Sat 05:39:00 PM 21.4448 -104.1870 318° Northwest  Level Estimated
Sat 05:40:00 PM 21.5106 -104.2500 318° Northwest  Level Estimated
Sat 05:41:00 PM 21.5763 -104.3130 318° Northwest  Level Estimated
Sat 05:42:00 PM 21.6420 -104.3761 318° Northwest  Level Estimated
Sat 05:43:00 PM 21.7077 -104.4392 318° Northwest  Level Estimated
Sat 05:44:00 PM 21.7733 -104.5024 318° Northwest  Level Estimated
Sat 05:45:00 PM 21.8390 -104.5657 318° Northwest  Level Estimated
Sat 05:46:00 PM 21.9046 -104.6290 318° Northwest  Level Estimated
Sat 05:47:00 PM 21.9702 -104.6924 318° Northwest  Level Estimated
Sat 05:48:00 PM 22.0357 -104.7558 318° Northwest  Level Estimated
Sat 05:49:00 PM 22.1013 -104.8193 318° Northwest  Level Estimated
Sat 05:50:00 PM 22.1668 -104.8829 318° Northwest  Level Estimated
Sat 05:51:00 PM 22.2323 -104.9465 318° Northwest  Level Estimated
Sat 05:52:00 PM 22.2977 -105.0102 318° Northwest  Level Estimated
Sat 05:53:00 PM 22.3632 -105.0739 318° Northwest  Level Estimated
Sat 05:54:00 PM 22.4286 -105.1377 318° Northwest  Level Estimated
Sat 05:55:00 PM 22.4940 -105.2016 318° Northwest  Level Estimated
Sat 05:56:00 PM 22.5594 -105.2655 318° Northwest  Level Estimated
Sat 05:57:00 PM 22.6247 -105.3295 318° Northwest  Level Estimated
Sat 05:58:00 PM 22.6900 -105.3935 318° Northwest  Level Estimated
Sat 05:59:00 PM 22.7553 -105.4576 318° Northwest  Level Estimated
Sat 06:00:00 PM 22.8206 -105.5218 318° Northwest  Level Estimated
Sat 06:01:00 PM 22.8858 -105.5860 318° Northwest  Level Estimated
Sat 06:02:00 PM 22.9510 -105.6503 318° Northwest  Level Estimated
Sat 06:03:00 PM 23.0162 -105.7146 318° Northwest  Level Estimated
Sat 06:04:00 PM 23.0814 -105.7791 318° Northwest  Level Estimated
Sat 06:05:00 PM 23.1465 -105.8435 318° Northwest  Level Estimated
Sat 06:06:00 PM 23.2116 -105.9081 318° Northwest  Level Estimated
Sat 06:07:00 PM 23.2767 -105.9726 318° Northwest  Level Estimated
Sat 06:08:00 PM 23.3417 -106.0373 318° Northwest  Level Estimated
Sat 06:09:00 PM 23.4068 -106.1020 318° Northwest  Level Estimated
Sat 06:10:00 PM 23.4718 -106.1668 318° Northwest  Level Estimated
Sat 06:11:00 PM 23.5367 -106.2317 318° Northwest  Level Estimated
Sat 06:12:00 PM 23.6017 -106.2966 318° Northwest  Level Estimated
Sat 06:13:00 PM 23.6666 -106.3615 317° Northwest  Level Estimated
Sat 06:14:00 PM 23.7315 -106.4266 317° Northwest  Level Estimated
Sat 06:15:00 PM 23.7964 -106.4917 317° Northwest  Level Estimated
Sat 06:16:00 PM 23.8612 -106.5569 317° Northwest  Level Estimated
Sat 06:17:00 PM 23.9260 -106.6221 317° Northwest  Level Estimated
Sat 06:18:00 PM 23.9908 -106.6874 317° Northwest  Level Estimated
Sat 06:19:00 PM 24.0555 -106.7528 317° Northwest  Level Estimated
Sat 06:20:00 PM 24.1203 -106.8182 317° Northwest  Level Estimated
Sat 06:21:00 PM 24.1850 -106.8837 317° Northwest  Level Estimated
Sat 06:22:00 PM 24.2496 -106.9493 317° Northwest  Level Estimated
Sat 06:23:00 PM 24.3143 -107.0149 317° Northwest  Level Estimated
Sat 06:24:00 PM 24.3789 -107.0806 317° Northwest  Level Estimated
Sat 06:25:00 PM 24.4435 -107.1464 317° Northwest  Level Estimated
Sat 06:26:00 PM 24.5081 -107.2122 317° Northwest  Level Estimated
Sat 06:27:00 PM 24.5726 -107.2781 317° Northwest  Level Estimated
Sat 06:28:00 PM 24.6371 -107.3441 317° Northwest  Level Estimated

Login

Don't have an account? Register now (free) for customized features, flight alerts, and more!